createdAt,value
2018-07-27T00:02:18.026Z,49.70
2018-07-27T00:04:46.341Z,49.40
2018-07-27T00:07:14.594Z,48.80
2018-07-27T00:09:42.773Z,48.50
2018-07-27T00:12:10.990Z,48.20
2018-07-27T00:14:39.217Z,48.10
2018-07-27T00:17:07.394Z,48.20
2018-07-27T00:19:35.566Z,48.40
2018-07-27T00:22:03.795Z,48.70
2018-07-27T00:24:32.009Z,48.30
2018-07-27T00:27:00.212Z,48.10
2018-07-27T00:29:28.425Z,48.70
2018-07-27T00:31:56.669Z,48.30
2018-07-27T00:34:24.869Z,48.60
2018-07-27T00:36:53.165Z,48.40
2018-07-27T00:39:21.338Z,48.60
2018-07-27T00:41:49.546Z,49.00
2018-07-27T00:44:17.717Z,49.20
2018-07-27T00:46:45.983Z,49.30
2018-07-27T00:49:14.153Z,49.60
2018-07-27T00:51:42.339Z,49.90
2018-07-27T00:54:10.506Z,49.90
2018-07-27T00:56:38.674Z,50.40
2018-07-27T00:59:06.843Z,49.70
2018-07-27T01:01:35.082Z,49.40
2018-07-27T01:04:03.346Z,49.10
2018-07-27T01:06:31.570Z,48.70
2018-07-27T01:08:59.782Z,49.20
2018-07-27T01:11:28.076Z,49.00
2018-07-27T01:13:56.294Z,48.80
2018-07-27T01:16:24.520Z,48.80
2018-07-27T01:18:53.398Z,49.10
2018-07-27T01:21:21.634Z,49.30
2018-07-27T01:23:49.861Z,49.00
2018-07-27T01:26:18.086Z,49.10
2018-07-27T01:28:46.397Z,48.90
2018-07-27T01:31:14.637Z,48.90
2018-07-27T01:33:42.918Z,48.70
2018-07-27T01:36:11.124Z,48.90
2018-07-27T01:38:39.342Z,48.80
2018-07-27T01:41:08.114Z,49.00
2018-07-27T01:43:36.382Z,49.10
2018-07-27T01:46:04.634Z,49.10
2018-07-27T01:48:32.831Z,49.00
2018-07-27T01:51:01.079Z,48.80
2018-07-27T01:53:29.265Z,48.60
2018-07-27T01:55:57.602Z,48.50
2018-07-27T01:58:25.914Z,48.40
2018-07-27T02:00:55.164Z,48.30
2018-07-27T02:03:23.381Z,48.20
2018-07-27T02:05:51.633Z,48.30
2018-07-27T02:08:19.849Z,48.40
2018-07-27T02:10:48.106Z,48.50
2018-07-27T02:13:16.314Z,48.60
2018-07-27T02:15:44.541Z,48.80
2018-07-27T02:18:12.804Z,48.60
2018-07-27T02:20:41.078Z,48.70
2018-07-27T02:23:09.262Z,49.00
2018-07-27T02:25:37.489Z,48.90
2018-07-27T02:28:05.733Z,49.30
2018-07-27T02:30:34.074Z,49.80
2018-07-27T02:33:02.239Z,50.00
2018-07-27T02:35:30.432Z,50.60
2018-07-27T02:37:58.624Z,50.70
2018-07-27T02:40:26.825Z,51.10
2018-07-27T02:42:55.016Z,50.90
2018-07-27T02:45:23.226Z,50.90
2018-07-27T02:47:51.421Z,51.30
2018-07-27T02:50:20.558Z,51.50
2018-07-27T02:52:48.755Z,51.20
2018-07-27T02:55:17.097Z,50.80
2018-07-27T02:57:45.438Z,51.00
2018-07-27T03:00:13.654Z,51.40
2018-07-27T03:02:41.846Z,51.80
2018-07-27T03:05:10.047Z,51.70
2018-07-27T03:07:38.278Z,52.00
2018-07-27T03:10:07.014Z,51.80
2018-07-27T03:12:35.232Z,52.10
2018-07-27T03:15:03.565Z,52.20
2018-07-27T03:17:31.784Z,52.10
2018-07-27T03:20:00.015Z,52.40
2018-07-27T03:22:28.210Z,52.60
2018-07-27T03:24:56.415Z,52.30
2018-07-27T03:27:24.669Z,52.60
2018-07-27T03:29:52.953Z,53.10
2018-07-27T03:32:21.192Z,52.90
2018-07-27T03:37:17.335Z,53.00
2018-07-27T03:39:45.526Z,53.10
2018-07-27T03:42:13.779Z,53.00
2018-07-27T03:44:41.885Z,53.10
2018-07-27T03:47:10.090Z,52.70
2018-07-27T03:49:38.325Z,53.00
2018-07-27T03:52:06.494Z,53.20
2018-07-27T03:54:34.681Z,53.00
2018-07-27T03:59:37.583Z,52.60
2018-07-27T04:02:05.742Z,52.80
2018-07-27T04:04:33.953Z,52.50
2018-07-27T04:07:02.173Z,52.60
2018-07-27T04:09:30.356Z,52.80
2018-07-27T04:11:58.569Z,53.10
2018-07-27T04:14:27.008Z,53.00
2018-07-27T04:16:55.194Z,53.10
2018-07-27T04:19:23.420Z,53.00
2018-07-27T04:21:51.584Z,53.50
2018-07-27T04:24:19.854Z,53.90
2018-07-27T04:26:48.034Z,54.10
2018-07-27T04:29:16.221Z,54.40
2018-07-27T04:31:44.443Z,54.40
2018-07-27T04:34:12.653Z,54.60
2018-07-27T04:36:40.849Z,54.00
2018-07-27T04:39:10.470Z,53.90
2018-07-27T04:41:38.689Z,53.60
2018-07-27T04:44:07.068Z,53.20
2018-07-27T04:46:35.379Z,53.30
2018-07-27T04:49:03.592Z,53.40
2018-07-27T04:51:31.870Z,53.60
2018-07-27T04:54:00.045Z,53.30
2018-07-27T04:56:28.266Z,53.70
2018-07-27T04:58:56.402Z,53.70
2018-07-27T05:01:24.653Z,53.80
2018-07-27T05:03:53.294Z,53.40
2018-07-27T05:06:21.474Z,53.50
2018-07-27T05:08:55.013Z,53.00
2018-07-27T05:11:23.205Z,52.90
2018-07-27T05:13:51.433Z,53.00
2018-07-27T05:16:19.690Z,52.90
2018-07-27T05:18:47.890Z,52.80
2018-07-27T05:21:16.131Z,52.90
2018-07-27T05:23:44.310Z,53.70
2018-07-27T05:26:12.536Z,54.30
2018-07-27T05:28:41.526Z,54.50
2018-07-27T05:31:09.738Z,54.60
2018-07-27T05:33:37.913Z,54.10
2018-07-27T05:36:06.210Z,53.80
2018-07-27T05:38:34.426Z,54.00
2018-07-27T05:41:02.611Z,54.00
2018-07-27T05:43:30.790Z,53.70
2018-07-27T05:45:59.032Z,53.30
2018-07-27T05:48:27.219Z,52.90
2018-07-27T05:50:55.464Z,53.50
2018-07-27T05:53:23.630Z,53.10
2018-07-27T05:55:51.870Z,52.20
2018-07-27T05:58:20.164Z,51.50
2018-07-27T06:00:48.537Z,51.30
2018-07-27T06:03:16.694Z,51.30
2018-07-27T06:05:44.923Z,51.10
2018-07-27T06:08:13.148Z,50.90
2018-07-27T06:10:41.378Z,51.10
2018-07-27T06:13:09.626Z,50.80
2018-07-27T06:15:37.801Z,51.10
2018-07-27T06:18:06.184Z,51.60
2018-07-27T06:20:34.515Z,51.00
2018-07-27T06:23:02.750Z,51.20
2018-07-27T06:25:31.010Z,51.50
2018-07-27T06:27:59.397Z,51.30
2018-07-27T06:30:27.621Z,50.50
2018-07-27T06:32:55.830Z,50.20
2018-07-27T06:35:24.063Z,49.00
2018-07-27T06:37:52.297Z,48.40
2018-07-27T06:40:20.549Z,47.10
2018-07-27T06:42:48.820Z,46.20
2018-07-27T06:45:17.056Z,45.00
2018-07-27T06:47:45.193Z,43.90
2018-07-27T06:50:13.370Z,43.20
2018-07-27T06:52:41.589Z,42.60
2018-07-27T06:55:09.762Z,41.70
2018-07-27T06:57:37.947Z,39.60
2018-07-27T07:00:06.615Z,39.20
2018-07-27T07:02:34.794Z,38.60
2018-07-27T07:05:03.381Z,38.90
2018-07-27T07:07:31.750Z,37.80
2018-07-27T07:09:59.964Z,38.40
2018-07-27T07:12:28.221Z,38.00
2018-07-27T07:14:56.425Z,38.00
2018-07-27T07:17:24.699Z,38.80
2018-07-27T07:19:54.601Z,37.80
2018-07-27T07:22:22.841Z,36.00
2018-07-27T07:24:51.053Z,36.60
2018-07-27T07:27:19.271Z,37.30
2018-07-27T07:29:47.472Z,37.10
2018-07-27T07:32:15.654Z,36.10
2018-07-27T07:34:44.132Z,34.60
2018-07-27T07:37:12.374Z,33.70
2018-07-27T07:39:40.522Z,33.00
2018-07-27T07:42:08.685Z,34.20
2018-07-27T07:44:36.910Z,34.10
2018-07-27T07:47:05.222Z,32.20
2018-07-27T07:49:33.410Z,32.50
2018-07-27T07:52:01.599Z,32.40
2018-07-27T07:56:57.781Z,32.40
2018-07-27T07:59:26.001Z,32.80
2018-07-27T08:01:54.318Z,34.00
2018-07-27T08:04:22.562Z,34.60
2018-07-27T08:06:50.803Z,34.80
2018-07-27T08:09:19.008Z,34.10
2018-07-27T08:11:47.255Z,35.00
2018-07-27T08:14:15.562Z,35.30
2018-07-27T08:16:43.801Z,34.40
2018-07-27T08:19:12.035Z,34.10
2018-07-27T08:21:40.388Z,33.30
2018-07-27T08:24:08.624Z,33.00
2018-07-27T08:26:39.858Z,32.80
2018-07-27T08:29:09.890Z,32.00
2018-07-27T08:31:38.665Z,31.70
2018-07-27T08:34:07.082Z,32.30
2018-07-27T08:36:35.560Z,32.20
2018-07-27T08:39:06.189Z,31.70
2018-07-27T08:41:34.912Z,31.70
2018-07-27T08:44:03.228Z,31.70
2018-07-27T08:46:31.465Z,31.90
2018-07-27T08:48:59.666Z,31.80
2018-07-27T08:51:27.862Z,32.10
2018-07-27T08:53:56.346Z,31.70
2018-07-27T08:56:24.652Z,32.10
2018-07-27T08:58:53.719Z,30.90
2018-07-27T09:01:22.023Z,29.50
2018-07-27T09:03:50.329Z,28.90
2018-07-27T09:06:18.778Z,28.30
2018-07-27T09:08:47.364Z,27.20
2018-07-27T09:11:15.603Z,27.70
2018-07-27T09:13:43.805Z,27.00
2018-07-27T09:16:12.059Z,26.50
2018-07-27T09:18:40.326Z,26.50
2018-07-27T09:21:08.509Z,26.90
2018-07-27T09:23:36.783Z,26.40
2018-07-27T09:26:05.024Z,25.40
2018-07-27T09:28:33.254Z,25.70
2018-07-27T09:31:01.488Z,26.40
2018-07-27T09:33:29.802Z,25.90
2018-07-27T09:35:58.022Z,24.90
2018-07-27T09:38:26.265Z,25.80
2018-07-27T09:40:54.450Z,26.70
2018-07-27T09:43:22.694Z,27.50
2018-07-27T09:45:50.941Z,27.60
2018-07-27T09:48:19.172Z,26.70
2018-07-27T09:50:47.527Z,26.80
2018-07-27T09:53:16.094Z,25.90
2018-07-27T09:55:44.671Z,25.20
2018-07-27T09:58:12.949Z,25.00
2018-07-27T10:00:46.636Z,24.40
2018-07-27T10:03:14.853Z,25.40
2018-07-27T10:05:43.126Z,25.10
2018-07-27T10:08:11.382Z,25.40
2018-07-27T10:10:39.636Z,24.80
2018-07-27T10:13:08.742Z,24.30
2018-07-27T10:15:37.049Z,23.70
2018-07-27T10:18:05.701Z,23.50
2018-07-27T10:20:34.050Z,23.80
2018-07-27T10:23:02.346Z,23.90
2018-07-27T10:25:31.041Z,24.50
2018-07-27T10:30:27.326Z,24.70
2018-07-27T10:32:55.590Z,24.90
2018-07-27T10:35:23.881Z,23.90
2018-07-27T10:37:52.394Z,23.40
2018-07-27T10:40:20.593Z,23.00
2018-07-27T10:42:48.800Z,23.40
2018-07-27T10:45:16.971Z,23.50
2018-07-27T10:47:45.156Z,23.30
2018-07-27T10:50:13.457Z,23.70
2018-07-27T10:52:41.616Z,23.80
2018-07-27T10:55:09.803Z,23.50
2018-07-27T10:57:38.549Z,23.50
2018-07-27T11:00:09.700Z,23.90
2018-07-27T11:02:38.095Z,24.70
2018-07-27T11:05:06.397Z,24.70
2018-07-27T11:07:34.602Z,25.90
2018-07-27T11:10:02.883Z,26.30
2018-07-27T11:12:31.141Z,26.90
2018-07-27T11:14:59.417Z,25.90
2018-07-27T11:17:27.831Z,27.10
2018-07-27T11:19:56.046Z,26.80
2018-07-27T11:22:24.322Z,26.60
2018-07-27T11:24:52.555Z,27.30
2018-07-27T11:27:20.772Z,27.70
2018-07-27T11:29:49.144Z,27.60
2018-07-27T11:32:17.406Z,27.70
2018-07-27T11:34:45.662Z,27.60
2018-07-27T11:37:13.919Z,27.80
2018-07-27T11:39:42.086Z,26.80
2018-07-27T11:42:10.573Z,27.60
2018-07-27T11:44:38.745Z,27.80
2018-07-27T11:47:07.184Z,27.20
2018-07-27T11:49:35.519Z,26.50
2018-07-27T11:52:03.743Z,26.30
2018-07-27T11:54:31.990Z,27.00
2018-07-27T11:57:00.332Z,27.30
2018-07-27T11:59:28.578Z,27.60
2018-07-27T12:01:57.765Z,27.90
2018-07-27T12:04:25.963Z,27.70
2018-07-27T12:06:54.165Z,27.50
2018-07-27T12:09:22.474Z,27.30
2018-07-27T12:11:50.689Z,26.10
2018-07-27T12:14:19.059Z,26.10
2018-07-27T12:16:47.394Z,26.70
2018-07-27T12:19:15.682Z,26.80
2018-07-27T12:21:44.093Z,27.30
2018-07-27T12:24:12.544Z,27.60
2018-07-27T12:26:40.826Z,27.80
2018-07-27T12:29:09.301Z,28.40
2018-07-27T12:31:37.615Z,27.90
2018-07-27T12:34:11.528Z,28.50
2018-07-27T12:36:39.729Z,28.30
2018-07-27T12:39:09.987Z,28.10
2018-07-27T12:41:39.157Z,28.00
2018-07-27T12:44:07.536Z,28.10
2018-07-27T12:46:36.012Z,27.70
2018-07-27T12:49:04.282Z,27.40
2018-07-27T12:51:32.496Z,27.10
2018-07-27T12:54:00.735Z,26.90
2018-07-27T12:56:29.286Z,26.70
2018-07-27T12:58:57.525Z,27.20
2018-07-27T13:01:25.865Z,27.00
2018-07-27T13:03:54.090Z,27.10
2018-07-27T13:06:22.342Z,27.10
2018-07-27T13:08:50.690Z,27.30
2018-07-27T13:11:18.920Z,27.20
2018-07-27T13:16:15.211Z,27.10
2018-07-27T13:18:43.438Z,26.40
2018-07-27T13:21:11.697Z,26.30
2018-07-27T13:23:50.079Z,27.10
2018-07-27T13:28:46.598Z,26.50
2018-07-27T13:31:14.809Z,26.90
2018-07-27T13:37:17.603Z,26.90
2018-07-27T13:39:46.620Z,26.10
2018-07-27T13:42:16.104Z,25.90
2018-07-27T13:44:44.797Z,25.70
2018-07-27T13:47:13.536Z,26.20
2018-07-27T13:49:41.797Z,26.40
2018-07-27T13:52:10.057Z,26.90
2018-07-27T13:54:38.246Z,26.80
2018-07-27T13:57:06.457Z,26.80
2018-07-27T13:59:34.757Z,25.90
2018-07-27T14:02:02.937Z,25.90
2018-07-27T14:04:31.174Z,26.30
2018-07-27T14:07:00.808Z,26.40
2018-07-27T14:09:29.042Z,26.40
2018-07-27T14:11:57.273Z,26.40
2018-07-27T14:14:25.550Z,26.00
2018-07-27T14:16:53.714Z,25.30
2018-07-27T14:19:22.367Z,25.80
2018-07-27T14:21:51.138Z,26.10
2018-07-27T14:24:19.687Z,25.80
2018-07-27T14:26:47.934Z,25.70
2018-07-27T14:29:16.145Z,26.10
2018-07-27T14:31:44.397Z,25.50
2018-07-27T14:34:12.590Z,25.50
2018-07-27T14:36:40.805Z,25.40
2018-07-27T14:39:10.934Z,25.70
2018-07-27T14:41:39.209Z,25.80
2018-07-27T14:44:07.513Z,25.80
2018-07-27T14:46:42.250Z,25.70
2018-07-27T14:49:11.457Z,25.50
2018-07-27T14:51:40.341Z,25.10
2018-07-27T14:54:09.831Z,25.00
2018-07-27T14:56:38.466Z,25.30
2018-07-27T14:59:07.002Z,25.10
2018-07-27T15:01:36.043Z,25.60
2018-07-27T15:04:04.290Z,25.70
2018-07-27T15:06:32.469Z,25.70
2018-07-27T15:09:00.699Z,25.50
2018-07-27T15:11:28.834Z,26.30
2018-07-27T15:13:57.073Z,25.10
2018-07-27T15:16:25.432Z,24.60
2018-07-27T15:18:53.599Z,24.80
2018-07-27T15:21:21.849Z,24.60
2018-07-27T15:23:50.094Z,24.20
2018-07-27T15:26:18.341Z,24.60
2018-07-27T15:31:14.522Z,24.50
2018-07-27T15:33:42.765Z,24.50
2018-07-27T15:36:11.070Z,24.30
2018-07-27T15:41:07.687Z,24.40
2018-07-27T15:43:35.894Z,24.10
2018-07-27T15:46:04.106Z,23.80
2018-07-27T15:48:32.404Z,24.20
2018-07-27T15:51:00.497Z,23.80
2018-07-27T15:53:28.702Z,23.70
2018-07-27T15:55:56.975Z,23.30
2018-07-27T15:58:25.165Z,22.60
2018-07-27T16:00:53.445Z,22.60
2018-07-27T16:03:21.764Z,23.00
2018-07-27T16:05:49.983Z,23.30
2018-07-27T16:08:18.286Z,22.70
2018-07-27T16:10:46.482Z,22.90
2018-07-27T16:13:14.750Z,23.00
2018-07-27T16:15:43.309Z,23.30
2018-07-27T16:18:11.478Z,23.00
2018-07-27T16:20:39.722Z,23.10
2018-07-27T16:23:07.947Z,23.30
2018-07-27T16:25:36.119Z,23.60
2018-07-27T16:28:04.380Z,23.50
2018-07-27T16:30:32.572Z,23.30
2018-07-27T16:33:00.717Z,23.30
2018-07-27T16:35:28.921Z,23.40
2018-07-27T16:37:57.126Z,23.90
2018-07-27T16:40:25.334Z,23.70
2018-07-27T16:42:53.574Z,24.50
2018-07-27T16:45:21.830Z,23.30
2018-07-27T16:47:50.062Z,23.80
2018-07-27T16:50:18.305Z,24.20
2018-07-27T16:52:46.523Z,23.60
2018-07-27T16:55:14.753Z,23.60
2018-07-27T16:57:42.991Z,22.60
2018-07-27T17:00:11.268Z,22.60
2018-07-27T17:02:39.502Z,22.90
2018-07-27T17:05:07.990Z,23.60
2018-07-27T17:07:36.227Z,24.20
2018-07-27T17:10:05.284Z,24.30
2018-07-27T17:12:33.530Z,25.10
2018-07-27T17:15:01.699Z,26.90
2018-07-27T17:17:29.970Z,27.40
2018-07-27T17:19:58.215Z,24.70
2018-07-27T17:22:26.728Z,24.80
2018-07-27T17:24:55.415Z,27.50
2018-07-27T17:27:23.701Z,24.10
2018-07-27T17:29:52.454Z,24.80
2018-07-27T17:32:20.690Z,24.90
2018-07-27T17:34:49.381Z,25.40
2018-07-27T17:39:45.665Z,25.90
2018-07-27T17:42:13.969Z,26.20
2018-07-27T17:44:42.393Z,26.30
2018-07-27T17:47:10.749Z,26.70
2018-07-27T17:49:39.784Z,28.10
2018-07-27T17:52:08.106Z,26.40
2018-07-27T17:54:36.373Z,26.70
2018-07-27T17:57:04.647Z,26.70
2018-07-27T17:59:32.889Z,28.60
2018-07-27T18:02:01.162Z,27.90
2018-07-27T18:04:29.478Z,26.90
2018-07-27T18:06:57.797Z,27.10
2018-07-27T18:09:26.035Z,26.70
2018-07-27T18:11:54.311Z,28.00
2018-07-27T18:14:22.658Z,28.90
2018-07-27T18:16:50.963Z,27.20
2018-07-27T18:19:19.565Z,27.00
2018-07-27T18:21:47.927Z,27.80
2018-07-27T18:24:16.213Z,27.80
2018-07-27T18:26:44.973Z,28.10
2018-07-27T18:29:13.261Z,28.50
2018-07-27T18:31:41.618Z,28.80
2018-07-27T18:34:09.901Z,29.20
2018-07-27T18:36:38.508Z,29.50
2018-07-27T18:39:08.803Z,29.60
2018-07-27T18:41:37.157Z,29.60
2018-07-27T18:44:05.498Z,29.90
2018-07-27T18:46:33.871Z,30.00
2018-07-27T18:49:02.145Z,30.30
2018-07-27T18:51:30.485Z,30.60
2018-07-27T18:53:58.799Z,30.90
2018-07-27T18:56:27.088Z,31.20
2018-07-27T18:58:55.334Z,31.30
2018-07-27T19:01:24.623Z,31.50
2018-07-27T19:03:53.017Z,31.60
2018-07-27T19:06:21.464Z,32.00
2018-07-27T19:08:50.178Z,32.00
2018-07-27T19:11:18.728Z,32.10
2018-07-27T19:13:47.122Z,32.30
2018-07-27T19:16:15.431Z,32.50
2018-07-27T19:18:43.772Z,33.00
2018-07-27T19:21:12.158Z,32.60
2018-07-27T19:23:40.450Z,33.20
2018-07-27T19:26:08.805Z,33.50
2018-07-27T19:28:37.722Z,33.60
2018-07-27T19:31:06.095Z,33.80
2018-07-27T19:33:34.490Z,33.90
2018-07-27T19:36:02.750Z,34.20
2018-07-27T19:38:30.978Z,34.00
2018-07-27T19:40:59.258Z,34.40
2018-07-27T19:43:27.678Z,34.80
2018-07-27T19:45:56.070Z,34.60
2018-07-27T19:48:24.435Z,34.50
2018-07-27T19:50:52.650Z,34.40
2018-07-27T19:53:21.598Z,34.90
2018-07-27T19:55:49.778Z,34.40
2018-07-27T19:58:18.115Z,34.90
2018-07-27T20:00:46.332Z,35.00
2018-07-27T20:03:14.619Z,35.00
2018-07-27T20:05:42.832Z,35.00
2018-07-27T20:08:11.088Z,35.00
2018-07-27T20:10:39.660Z,35.40
2018-07-27T20:13:07.929Z,35.20
2018-07-27T20:15:36.207Z,35.40
2018-07-27T20:18:04.507Z,35.60
2018-07-27T20:20:32.797Z,35.50
2018-07-27T20:23:01.110Z,35.90
2018-07-27T20:25:29.409Z,35.80
2018-07-27T20:27:57.776Z,36.00
2018-07-27T20:30:26.007Z,36.20
2018-07-27T20:32:54.214Z,35.90
2018-07-27T20:35:22.531Z,36.30
2018-07-27T20:37:50.800Z,36.30
2018-07-27T20:40:19.114Z,36.00
2018-07-27T20:42:48.323Z,36.10
2018-07-27T20:45:16.530Z,36.00
2018-07-27T20:47:44.778Z,36.20
2018-07-27T20:50:12.972Z,36.10
2018-07-27T20:52:41.233Z,36.10
2018-07-27T20:55:09.451Z,36.30
2018-07-27T20:57:37.727Z,36.70
2018-07-27T21:00:06.084Z,36.80
2018-07-27T21:02:34.434Z,36.70
2018-07-27T21:05:02.692Z,37.10
2018-07-27T21:07:30.884Z,37.00
2018-07-27T21:09:59.140Z,37.30
2018-07-27T21:12:27.390Z,37.70
2018-07-27T21:14:55.694Z,37.90
2018-07-27T21:17:23.969Z,37.90
2018-07-27T21:19:52.248Z,37.90
2018-07-27T21:22:20.507Z,37.50
2018-07-27T21:24:49.258Z,38.00
2018-07-27T21:27:17.498Z,38.10
2018-07-27T21:29:45.891Z,38.10
2018-07-27T21:32:14.157Z,38.00
2018-07-27T21:34:42.542Z,37.80
2018-07-27T21:37:10.802Z,38.10
2018-07-27T21:39:39.037Z,37.90
2018-07-27T21:42:07.372Z,38.10
2018-07-27T21:44:35.637Z,38.50
2018-07-27T21:47:04.097Z,38.60
2018-07-27T21:49:32.440Z,38.50
2018-07-27T21:52:00.667Z,38.90
2018-07-27T21:54:28.890Z,38.90
2018-07-27T21:56:57.160Z,39.00
2018-07-27T21:59:25.499Z,39.20
2018-07-27T22:01:53.745Z,39.50
2018-07-27T22:04:22.001Z,39.70
2018-07-27T22:06:50.164Z,40.20
2018-07-27T22:09:18.415Z,40.50
2018-07-27T22:11:46.726Z,41.00
2018-07-27T22:14:14.950Z,41.60
2018-07-27T22:16:43.143Z,42.10
2018-07-27T22:19:11.454Z,42.20
2018-07-27T22:24:07.713Z,42.80
2018-07-27T22:26:35.942Z,42.90
2018-07-27T22:29:04.210Z,42.90
2018-07-27T22:31:32.428Z,43.20
2018-07-27T22:34:00.981Z,43.30
2018-07-27T22:36:29.237Z,43.20
2018-07-27T22:38:57.495Z,43.30
2018-07-27T22:41:25.924Z,43.70
2018-07-27T22:43:54.194Z,43.90
2018-07-27T22:46:22.750Z,44.10
2018-07-27T22:48:51.117Z,44.10
2018-07-27T22:53:47.280Z,44.60
2018-07-27T22:56:15.566Z,44.70
2018-07-27T22:58:43.790Z,45.00
2018-07-27T23:01:12.426Z,45.30
2018-07-27T23:03:40.698Z,45.40
2018-07-27T23:06:08.877Z,45.40
2018-07-27T23:08:37.062Z,45.70
2018-07-27T23:11:05.343Z,46.10
2018-07-27T23:13:34.035Z,46.30
2018-07-27T23:16:02.275Z,46.90
2018-07-27T23:18:30.511Z,47.30
2018-07-27T23:20:58.734Z,47.20
2018-07-27T23:23:27.010Z,47.40
2018-07-27T23:25:55.190Z,47.70
2018-07-27T23:28:23.466Z,48.10
2018-07-27T23:30:51.687Z,48.30
2018-07-27T23:33:19.932Z,48.70
2018-07-27T23:35:48.163Z,48.70
2018-07-27T23:38:16.466Z,49.10
2018-07-27T23:40:44.748Z,49.70
2018-07-27T23:43:13.931Z,50.10
2018-07-27T23:45:42.278Z,50.40
2018-07-27T23:48:10.623Z,50.50
2018-07-27T23:50:38.927Z,50.20
2018-07-27T23:53:07.323Z,50.10
2018-07-27T23:55:35.545Z,50.10
2018-07-27T23:58:03.860Z,50.30
